createdAt,value
2018-05-07T00:00:33.051Z,10.40
2018-05-07T00:01:32.980Z,10.37
2018-05-07T00:02:32.905Z,10.25
2018-05-07T00:03:32.828Z,10.11
2018-05-07T00:04:32.746Z,10.16
2018-05-07T00:05:32.674Z,10.08
2018-05-07T00:06:32.591Z,9.92
2018-05-07T00:07:33.524Z,9.90
2018-05-07T00:08:32.441Z,9.86
2018-05-07T00:09:32.435Z,9.74
2018-05-07T00:10:32.283Z,9.72
2018-05-07T00:11:32.302Z,9.71
2018-05-07T00:12:32.135Z,9.71
2018-05-07T00:13:32.075Z,9.68
2018-05-07T00:14:31.982Z,9.74
2018-05-07T00:15:31.914Z,9.78
2018-05-07T00:16:31.832Z,9.82
2018-05-07T00:17:31.761Z,9.74
2018-05-07T00:18:31.680Z,9.88
2018-05-07T00:19:31.611Z,9.93
2018-05-07T00:20:31.536Z,10.01
2018-05-07T00:21:31.455Z,9.97
2018-05-07T00:22:31.375Z,9.89
2018-05-07T00:23:31.310Z,10.03
2018-05-07T00:24:31.222Z,10.04
2018-05-07T00:25:31.152Z,10.08
2018-05-07T00:26:31.089Z,10.08
2018-05-07T00:27:30.998Z,10.06
2018-05-07T00:28:30.917Z,10.15
2018-05-07T00:29:30.847Z,10.08
2018-05-07T00:30:30.763Z,10.10
2018-05-07T00:31:30.694Z,10.08
2018-05-07T00:32:30.610Z,10.07
2018-05-07T00:33:30.541Z,10.18
2018-05-07T00:34:30.460Z,10.21
2018-05-07T00:35:30.386Z,10.16
2018-05-07T00:36:30.307Z,10.11
2018-05-07T00:37:30.234Z,10.16
2018-05-07T00:38:30.152Z,10.03
2018-05-07T00:39:30.081Z,10.08
2018-05-07T00:40:30.001Z,10.11
2018-05-07T00:41:29.932Z,10.00
2018-05-07T00:42:29.843Z,9.96
2018-05-07T00:43:29.782Z,9.89
2018-05-07T00:44:29.698Z,10.04
2018-05-07T00:45:29.623Z,9.93
2018-05-07T00:46:29.541Z,9.86
2018-05-07T00:47:29.476Z,9.67
2018-05-07T00:48:29.392Z,9.67
2018-05-07T00:49:29.332Z,9.64
2018-05-07T00:50:29.319Z,9.50
2018-05-07T00:51:29.166Z,9.55
2018-05-07T00:52:29.085Z,9.38
2018-05-07T00:53:29.013Z,9.40
2018-05-07T00:54:28.931Z,9.40
2018-05-07T00:55:28.861Z,9.31
2018-05-07T00:56:28.778Z,9.35
2018-05-07T00:57:28.709Z,9.37
2018-05-07T00:58:28.626Z,9.40
2018-05-07T00:59:28.557Z,9.38
2018-05-07T01:00:28.476Z,9.38
2018-05-07T01:01:28.399Z,9.37
2018-05-07T01:02:28.319Z,9.35
2018-05-07T01:03:28.251Z,9.35
2018-05-07T01:04:28.168Z,9.40
2018-05-07T01:05:28.098Z,9.35
2018-05-07T01:06:28.012Z,9.42
2018-05-07T01:07:27.944Z,9.38
2018-05-07T01:08:27.863Z,9.34
2018-05-07T01:09:27.788Z,9.35
2018-05-07T01:10:27.705Z,9.35
2018-05-07T01:11:27.640Z,9.28
2018-05-07T01:12:27.552Z,9.28
2018-05-07T01:13:27.491Z,9.27
2018-05-07T01:14:27.398Z,9.22
2018-05-07T01:15:27.338Z,9.20
2018-05-07T01:16:27.252Z,9.19
2018-05-07T01:17:27.173Z,9.06
2018-05-07T01:18:27.092Z,9.19
2018-05-07T01:19:27.030Z,9.16
2018-05-07T01:20:26.943Z,9.16
2018-05-07T01:21:26.873Z,9.22
2018-05-07T01:22:26.786Z,9.24
2018-05-07T01:23:26.725Z,9.28
2018-05-07T01:24:26.640Z,9.12
2018-05-07T01:25:26.563Z,9.16
2018-05-07T01:26:26.483Z,9.22
2018-05-07T01:27:26.413Z,9.25
2018-05-07T01:28:26.327Z,9.28
2018-05-07T01:29:26.261Z,9.27
2018-05-07T01:30:26.177Z,9.29
2018-05-07T01:31:26.102Z,9.24
2018-05-07T01:32:26.020Z,9.16
2018-05-07T01:33:25.952Z,9.22
2018-05-07T01:34:25.868Z,9.25
2018-05-07T01:35:25.796Z,9.31
2018-05-07T01:36:25.710Z,9.35
2018-05-07T01:37:25.642Z,9.32
2018-05-07T01:38:25.558Z,9.29
2018-05-07T01:39:25.490Z,9.35
2018-05-07T01:40:25.412Z,9.32
2018-05-07T01:41:25.337Z,9.24
2018-05-07T01:42:25.251Z,9.29
2018-05-07T01:43:25.180Z,9.10
2018-05-07T01:44:25.098Z,9.22
2018-05-07T01:45:25.039Z,9.22
2018-05-07T01:46:24.946Z,9.16
2018-05-07T01:47:24.875Z,9.02
2018-05-07T01:48:24.792Z,8.94
2018-05-07T01:49:24.718Z,8.80
2018-05-07T01:50:24.637Z,8.69
2018-05-07T01:51:24.566Z,8.70
2018-05-07T01:52:24.480Z,8.66
2018-05-07T01:53:24.426Z,8.61
2018-05-07T01:54:24.329Z,8.55
2018-05-07T01:55:24.258Z,8.50
2018-05-07T01:56:24.179Z,8.42
2018-05-07T01:57:24.105Z,8.39
2018-05-07T01:58:24.025Z,8.39
2018-05-07T01:59:23.957Z,8.37
2018-05-07T02:00:23.870Z,8.27
2018-05-07T02:01:23.804Z,8.29
2018-05-07T02:02:23.716Z,8.22
2018-05-07T02:03:23.649Z,8.25
2018-05-07T02:04:23.563Z,8.27
2018-05-07T02:05:23.489Z,8.25
2018-05-07T02:06:23.405Z,8.24
2018-05-07T02:07:23.342Z,8.29
2018-05-07T02:08:23.251Z,8.22
2018-05-07T02:09:23.185Z,8.22
2018-05-07T02:10:23.097Z,8.29
2018-05-07T02:11:23.026Z,8.25
2018-05-07T02:12:22.944Z,8.21
2018-05-07T02:13:22.875Z,8.14
2018-05-07T02:14:22.787Z,8.19
2018-05-07T02:15:22.725Z,8.11
2018-05-07T02:16:22.634Z,8.15
2018-05-07T02:17:22.570Z,8.12
2018-05-07T02:18:22.479Z,8.11
2018-05-07T02:19:22.410Z,8.17
2018-05-07T02:20:22.327Z,8.19
2018-05-07T02:21:22.256Z,8.18
2018-05-07T02:22:22.173Z,8.09
2018-05-07T02:23:22.106Z,8.12
2018-05-07T02:24:22.018Z,8.15
2018-05-07T02:25:21.954Z,8.18
2018-05-07T02:26:21.862Z,8.21
2018-05-07T02:27:21.790Z,8.29
2018-05-07T02:28:21.709Z,8.24
2018-05-07T02:29:21.636Z,8.24
2018-05-07T02:30:21.556Z,8.30
2018-05-07T02:31:21.522Z,8.22
2018-05-07T02:32:21.406Z,8.34
2018-05-07T02:33:21.332Z,8.39
2018-05-07T02:34:21.248Z,8.37
2018-05-07T02:35:21.181Z,8.39
2018-05-07T02:36:21.090Z,8.39
2018-05-07T02:37:21.024Z,8.37
2018-05-07T02:38:20.937Z,8.44
2018-05-07T02:39:20.870Z,8.42
2018-05-07T02:40:20.785Z,8.37
2018-05-07T02:41:20.712Z,8.34
2018-05-07T02:42:20.625Z,8.34
2018-05-07T02:43:20.561Z,8.40
2018-05-07T02:44:20.475Z,8.39
2018-05-07T02:45:20.399Z,8.36
2018-05-07T02:46:20.317Z,8.36
2018-05-07T02:47:21.243Z,8.39
2018-05-07T02:48:20.174Z,8.29
2018-05-07T02:49:20.102Z,8.25
2018-05-07T02:50:20.009Z,8.25
2018-05-07T02:51:19.937Z,8.25
2018-05-07T02:52:19.853Z,8.21
2018-05-07T02:53:19.785Z,8.18
2018-05-07T02:54:19.697Z,8.22
2018-05-07T02:55:19.628Z,8.15
2018-05-07T02:56:19.546Z,8.15
2018-05-07T02:57:19.470Z,8.12
2018-05-07T02:58:19.393Z,8.12
2018-05-07T02:59:19.322Z,8.06
2018-05-07T03:00:19.238Z,8.12
2018-05-07T03:01:19.166Z,8.09
2018-05-07T03:02:19.077Z,8.07
2018-05-07T03:03:19.090Z,8.21
2018-05-07T03:04:18.926Z,8.21
2018-05-07T03:05:18.853Z,8.27
2018-05-07T03:06:18.773Z,8.25
2018-05-07T03:07:18.703Z,8.25
2018-05-07T03:08:18.616Z,8.18
2018-05-07T03:09:18.545Z,8.27
2018-05-07T03:10:18.461Z,8.14
2018-05-07T03:11:18.389Z,8.24
2018-05-07T03:12:18.302Z,8.22
2018-05-07T03:13:18.243Z,8.25
2018-05-07T03:14:18.151Z,8.24
2018-05-07T03:15:18.080Z,8.22
2018-05-07T03:16:17.993Z,8.25
2018-05-07T03:17:17.925Z,8.21
2018-05-07T03:18:17.840Z,8.09
2018-05-07T03:19:17.768Z,8.17
2018-05-07T03:20:17.685Z,8.12
2018-05-07T03:21:17.616Z,8.11
2018-05-07T03:22:17.529Z,8.00
2018-05-07T03:23:17.458Z,8.04
2018-05-07T03:24:17.372Z,8.06
2018-05-07T03:25:17.330Z,8.04
2018-05-07T03:26:17.218Z,8.12
2018-05-07T03:27:17.145Z,8.15
2018-05-07T03:28:17.071Z,8.15
2018-05-07T03:29:16.997Z,8.14
2018-05-07T03:30:16.909Z,8.17
2018-05-07T03:31:16.926Z,8.12
2018-05-07T03:32:16.757Z,8.18
2018-05-07T03:33:16.689Z,8.19
2018-05-07T03:34:16.603Z,8.09
2018-05-07T03:35:16.542Z,8.17
2018-05-07T03:36:16.445Z,8.17
2018-05-07T03:37:16.372Z,8.19
2018-05-07T03:38:16.551Z,8.19
2018-05-07T03:39:16.262Z,8.07
2018-05-07T03:40:16.136Z,7.94
2018-05-07T03:41:16.063Z,7.91
2018-05-07T03:42:15.982Z,7.83
2018-05-07T03:43:15.982Z,7.81
2018-05-07T03:44:15.823Z,7.79
2018-05-07T03:45:15.789Z,7.75
2018-05-07T03:46:15.899Z,7.64
2018-05-07T03:47:15.702Z,7.64
2018-05-07T03:48:15.516Z,7.57
2018-05-07T03:49:15.649Z,7.52
2018-05-07T03:50:15.358Z,7.44
2018-05-07T03:51:15.376Z,7.44
2018-05-07T03:52:15.204Z,7.38
2018-05-07T03:53:15.229Z,7.48
2018-05-07T03:54:15.049Z,7.42
2018-05-07T03:55:15.040Z,7.44
2018-05-07T03:56:14.890Z,7.45
2018-05-07T03:57:14.844Z,7.47
2018-05-07T03:58:14.734Z,7.45
2018-05-07T03:59:14.757Z,7.57
2018-05-07T04:00:14.582Z,7.48
2018-05-07T04:01:14.571Z,7.49
2018-05-07T04:02:14.425Z,7.67
2018-05-07T04:03:14.377Z,7.68
2018-05-07T04:04:14.273Z,7.52
2018-05-07T04:05:14.285Z,7.62
2018-05-07T04:06:14.115Z,7.62
2018-05-07T04:07:15.120Z,7.57
2018-05-07T04:08:13.959Z,7.56
2018-05-07T04:09:13.903Z,7.63
2018-05-07T04:10:13.805Z,7.57
2018-05-07T04:11:13.809Z,7.64
2018-05-07T04:12:13.649Z,7.55
2018-05-07T04:13:13.634Z,7.68
2018-05-07T04:14:13.491Z,7.64
2018-05-07T04:15:13.530Z,7.73
2018-05-07T04:16:13.343Z,7.73
2018-05-07T04:17:13.341Z,7.68
2018-05-07T04:18:13.182Z,7.79
2018-05-07T04:19:13.150Z,7.73
2018-05-07T04:20:13.028Z,7.75
2018-05-07T04:21:12.961Z,7.78
2018-05-07T04:22:12.874Z,7.70
2018-05-07T04:23:12.802Z,7.68
2018-05-07T04:24:12.722Z,7.63
2018-05-07T04:25:12.652Z,7.55
2018-05-07T04:26:12.555Z,7.62
2018-05-07T04:27:12.493Z,7.60
2018-05-07T04:28:12.418Z,7.59
2018-05-07T04:29:12.399Z,7.56
2018-05-07T04:30:12.252Z,7.57
2018-05-07T04:31:12.177Z,7.56
2018-05-07T04:32:12.094Z,7.59
2018-05-07T04:33:12.117Z,7.67
2018-05-07T04:34:11.941Z,7.59
2018-05-07T04:35:11.925Z,7.53
2018-05-07T04:36:11.784Z,7.64
2018-05-07T04:37:11.736Z,7.67
2018-05-07T04:38:11.630Z,7.70
2018-05-07T04:39:11.560Z,7.63
2018-05-07T04:40:11.474Z,7.70
2018-05-07T04:41:11.405Z,7.79
2018-05-07T04:42:11.324Z,7.88
2018-05-07T04:43:11.283Z,7.85
2018-05-07T04:44:11.166Z,7.94
2018-05-07T04:45:11.091Z,7.99
2018-05-07T04:46:11.014Z,7.96
2018-05-07T04:47:10.978Z,8.11
2018-05-07T04:48:10.846Z,8.07
2018-05-07T04:49:10.776Z,8.15
2018-05-07T04:50:10.695Z,8.25
2018-05-07T04:51:10.628Z,8.18
2018-05-07T04:52:10.537Z,8.15
2018-05-07T04:53:10.508Z,8.21
2018-05-07T04:54:10.397Z,8.25
2018-05-07T04:55:10.441Z,8.25
2018-05-07T04:56:10.267Z,8.21
2018-05-07T04:57:10.227Z,8.34
2018-05-07T04:58:10.075Z,8.34
2018-05-07T04:59:10.036Z,8.30
2018-05-07T05:00:09.913Z,8.34
2018-05-07T05:01:09.949Z,8.42
2018-05-07T05:02:09.763Z,8.47
2018-05-07T05:03:09.688Z,8.55
2018-05-07T05:04:10.648Z,8.60
2018-05-07T05:05:09.525Z,8.61
2018-05-07T05:06:09.456Z,8.72
2018-05-07T05:07:09.445Z,8.72
2018-05-07T05:08:09.303Z,8.80
2018-05-07T05:09:09.210Z,8.80
2018-05-07T05:10:09.146Z,8.79
2018-05-07T05:11:09.061Z,8.84
2018-05-07T05:12:09.990Z,8.95
2018-05-07T05:13:08.913Z,8.95
2018-05-07T05:14:08.833Z,9.00
2018-05-07T05:15:08.752Z,9.02
2018-05-07T05:16:08.683Z,9.10
2018-05-07T05:17:08.592Z,9.03
2018-05-07T05:18:08.624Z,9.17
2018-05-07T05:19:08.517Z,9.17
2018-05-07T05:20:08.369Z,9.28
2018-05-07T05:21:08.316Z,9.29
2018-05-07T05:22:08.214Z,9.25
2018-05-07T05:23:08.129Z,9.31
2018-05-07T05:24:08.155Z,9.42
2018-05-07T05:25:07.977Z,9.38
2018-05-07T05:26:07.903Z,9.45
2018-05-07T05:27:07.821Z,9.46
2018-05-07T05:28:07.746Z,9.49
2018-05-07T05:29:07.667Z,9.65
2018-05-07T05:30:07.595Z,9.63
2018-05-07T05:31:07.509Z,9.58
2018-05-07T05:32:07.443Z,9.70
2018-05-07T05:33:07.356Z,9.75
2018-05-07T05:34:07.296Z,9.75
2018-05-07T05:35:07.202Z,9.80
2018-05-07T05:36:07.124Z,9.80
2018-05-07T05:37:07.049Z,9.90
2018-05-07T05:38:07.013Z,9.89
2018-05-07T05:39:06.893Z,9.96
2018-05-07T05:40:06.824Z,10.01
2018-05-07T05:41:06.745Z,10.06
2018-05-07T05:42:06.671Z,10.04
2018-05-07T05:43:06.585Z,10.13
2018-05-07T05:44:06.542Z,10.21
2018-05-07T05:45:06.442Z,10.23
2018-05-07T05:46:06.457Z,10.33
2018-05-07T05:47:06.290Z,10.41
2018-05-07T05:48:06.297Z,10.41
2018-05-07T05:49:06.124Z,10.41
2018-05-07T05:50:06.144Z,10.59
2018-05-07T05:51:05.969Z,10.55
2018-05-07T05:52:05.983Z,10.60
2018-05-07T05:53:05.815Z,10.66
2018-05-07T05:54:05.792Z,10.80
2018-05-07T05:55:05.660Z,10.87
2018-05-07T05:56:05.599Z,10.99
2018-05-07T05:57:05.500Z,11.10
2018-05-07T05:58:05.511Z,11.05
2018-05-07T05:59:05.350Z,11.21
2018-05-07T06:00:05.324Z,11.29
2018-05-07T06:01:05.200Z,11.42
2018-05-07T06:02:05.230Z,11.41
2018-05-07T06:03:05.044Z,11.51
2018-05-07T06:04:05.079Z,11.57
2018-05-07T06:05:04.895Z,11.64
2018-05-07T06:06:04.850Z,11.71
2018-05-07T06:07:04.738Z,11.78
2018-05-07T06:08:04.756Z,11.98
2018-05-07T06:09:04.608Z,12.02
2018-05-07T06:10:05.592Z,12.05
2018-05-07T06:11:04.429Z,12.05
2018-05-07T06:12:04.375Z,12.06
2018-05-07T06:13:04.278Z,12.18
2018-05-07T06:14:04.286Z,12.27
2018-05-07T06:15:04.130Z,12.31
2018-05-07T06:16:04.095Z,12.34
2018-05-07T06:17:03.969Z,12.37
2018-05-07T06:18:04.005Z,12.45
2018-05-07T06:19:03.819Z,12.45
2018-05-07T06:20:03.815Z,12.53
2018-05-07T06:21:03.673Z,12.55
2018-05-07T06:22:03.621Z,12.69
2018-05-07T06:23:03.515Z,12.77
2018-05-07T06:24:03.531Z,12.88
2018-05-07T06:25:03.366Z,12.92
2018-05-07T06:26:03.341Z,12.97
2018-05-07T06:27:03.214Z,13.02
2018-05-07T06:28:03.253Z,13.15
2018-05-07T06:29:03.056Z,13.11
2018-05-07T06:30:03.059Z,13.24
2018-05-07T06:31:02.934Z,13.28
2018-05-07T06:32:02.868Z,13.38
2018-05-07T06:33:02.749Z,13.43
2018-05-07T06:34:02.786Z,13.53
2018-05-07T06:35:02.600Z,13.48
2018-05-07T06:36:02.593Z,13.56
2018-05-07T06:37:02.447Z,13.62
2018-05-07T06:38:02.399Z,13.73
2018-05-07T06:39:02.298Z,13.74
2018-05-07T06:40:02.309Z,13.84
2018-05-07T06:41:02.151Z,13.95
2018-05-07T06:42:02.117Z,14.01
2018-05-07T06:43:01.992Z,14.07
2018-05-07T06:44:02.028Z,14.17
2018-05-07T06:45:01.841Z,14.28
2018-05-07T06:46:01.908Z,14.36
2018-05-07T06:47:01.689Z,14.44
2018-05-07T06:48:01.645Z,14.42
2018-05-07T06:49:01.543Z,14.53
2018-05-07T06:50:01.557Z,14.67
2018-05-07T06:51:01.390Z,14.79
2018-05-07T06:52:01.424Z,14.87
2018-05-07T06:53:01.238Z,14.91
2018-05-07T06:54:01.279Z,15.05
2018-05-07T06:55:01.087Z,15.08
2018-05-07T06:56:01.085Z,15.13
2018-05-07T06:57:00.935Z,15.28
2018-05-07T06:58:00.893Z,15.31
2018-05-07T06:59:00.788Z,15.39
2018-05-07T07:00:00.800Z,15.39
2018-05-07T07:01:00.638Z,15.55
2018-05-07T07:02:00.620Z,15.61
2018-05-07T07:03:00.515Z,15.63
2018-05-07T07:04:00.525Z,15.79
2018-05-07T07:05:00.335Z,15.75
2018-05-07T07:06:00.333Z,15.89
2018-05-07T07:07:00.184Z,16.00
2018-05-07T07:08:00.241Z,16.12
2018-05-07T07:09:00.039Z,16.16
2018-05-07T07:10:00.051Z,16.12
2018-05-07T07:10:59.887Z,16.18
2018-05-07T07:11:59.858Z,16.38
2018-05-07T07:12:59.734Z,16.44
2018-05-07T07:13:59.769Z,16.47
2018-05-07T07:14:59.591Z,16.57
2018-05-07T07:15:59.580Z,16.65
2018-05-07T07:16:59.438Z,16.73
2018-05-07T07:17:59.387Z,16.85
2018-05-07T07:18:59.296Z,16.88
2018-05-07T07:19:59.298Z,16.99
2018-05-07T07:20:59.139Z,17.03
2018-05-07T07:21:59.106Z,17.14
2018-05-07T07:22:58.989Z,17.20
2018-05-07T07:23:59.036Z,17.29
2018-05-07T07:24:58.857Z,17.35
2018-05-07T07:25:58.827Z,17.44
2018-05-07T07:26:58.696Z,17.50
2018-05-07T07:27:58.758Z,17.55
2018-05-07T07:28:58.550Z,17.57
2018-05-07T07:29:58.544Z,17.66
2018-05-07T07:30:58.396Z,17.76
2018-05-07T07:31:58.355Z,17.87
2018-05-07T07:32:58.259Z,17.81
2018-05-07T07:33:58.345Z,17.88
2018-05-07T07:34:58.123Z,17.91
2018-05-07T07:35:58.075Z,18.10
2018-05-07T07:36:57.960Z,18.11
2018-05-07T07:37:57.986Z,18.28
2018-05-07T07:38:57.814Z,18.42
2018-05-07T07:39:57.799Z,18.61
2018-05-07T07:40:57.670Z,18.69
2018-05-07T07:41:57.704Z,18.77
2018-05-07T07:42:57.523Z,18.94
2018-05-07T07:43:57.511Z,19.08
2018-05-07T07:44:57.373Z,19.23
2018-05-07T07:45:57.420Z,19.31
2018-05-07T07:46:57.312Z,19.36
2018-05-07T07:47:57.232Z,19.36
2018-05-07T07:48:57.089Z,19.42
2018-05-07T07:49:57.044Z,19.50
2018-05-07T07:50:56.942Z,19.55
2018-05-07T07:51:56.951Z,19.64
2018-05-07T07:52:56.797Z,19.71
2018-05-07T07:53:56.759Z,19.90
2018-05-07T07:54:56.661Z,19.97
2018-05-07T07:55:56.671Z,20.09
2018-05-07T07:56:56.508Z,20.30
2018-05-07T07:57:56.478Z,20.50
2018-05-07T07:58:56.367Z,20.51
2018-05-07T07:59:56.390Z,20.50
2018-05-07T08:00:56.220Z,20.57
2018-05-07T08:01:56.197Z,20.65
2018-05-07T08:02:56.083Z,20.57
2018-05-07T08:03:56.108Z,20.56
2018-05-07T08:04:55.941Z,20.61
2018-05-07T08:05:55.921Z,20.62
2018-05-07T08:06:55.796Z,20.79
2018-05-07T08:07:55.827Z,20.80
2018-05-07T08:08:55.652Z,20.64
2018-05-07T08:09:55.639Z,20.65
2018-05-07T08:10:55.512Z,20.61
2018-05-07T08:11:55.551Z,20.80
2018-05-07T08:12:55.377Z,20.74
2018-05-07T08:13:55.360Z,20.89
2018-05-07T08:14:55.226Z,20.90
2018-05-07T08:15:55.268Z,20.90
2018-05-07T08:16:55.099Z,20.90
2018-05-07T08:17:55.077Z,21.01
2018-05-07T08:18:54.949Z,21.04
2018-05-07T08:19:54.982Z,21.09
2018-05-07T08:20:54.808Z,21.20
2018-05-07T08:21:54.794Z,20.99
2018-05-07T08:22:54.669Z,21.16
2018-05-07T08:23:54.706Z,21.27
2018-05-07T08:24:54.525Z,21.24
2018-05-07T08:25:54.517Z,21.36
2018-05-07T08:26:54.385Z,21.29
2018-05-07T08:27:54.424Z,21.16
2018-05-07T08:28:54.246Z,21.19
2018-05-07T08:29:54.249Z,21.12
2018-05-07T08:30:54.107Z,21.17
2018-05-07T08:31:54.147Z,21.14
2018-05-07T08:32:53.966Z,21.31
2018-05-07T08:33:53.954Z,21.23
2018-05-07T08:34:53.827Z,21.27
2018-05-07T08:35:53.862Z,21.36
2018-05-07T08:36:53.685Z,21.31
2018-05-07T08:37:53.672Z,21.35
2018-05-07T08:38:53.552Z,21.17
2018-05-07T08:39:53.590Z,21.33
2018-05-07T08:40:53.410Z,21.31
2018-05-07T08:41:53.396Z,21.41
2018-05-07T08:42:53.272Z,21.35
2018-05-07T08:43:53.305Z,21.30
2018-05-07T08:44:53.129Z,21.02
2018-05-07T08:45:53.117Z,21.06
2018-05-07T08:46:52.997Z,21.11
2018-05-07T08:47:53.021Z,21.16
2018-05-07T08:48:52.852Z,21.09
2018-05-07T08:49:52.836Z,21.30
2018-05-07T08:50:52.793Z,21.30
2018-05-07T08:51:52.751Z,21.44
2018-05-07T08:52:52.594Z,21.41
2018-05-07T08:53:52.556Z,21.59
2018-05-07T08:54:52.441Z,21.61
2018-05-07T08:55:52.464Z,21.72
2018-05-07T08:56:52.302Z,21.67
2018-05-07T08:57:52.275Z,21.70
2018-05-07T08:58:52.161Z,21.76
2018-05-07T08:59:52.182Z,21.84
2018-05-07T09:00:52.025Z,21.75
2018-05-07T09:01:52.001Z,21.75
2018-05-07T09:02:51.892Z,21.56
2018-05-07T09:03:51.901Z,21.59
2018-05-07T09:04:51.748Z,21.46
2018-05-07T09:05:51.710Z,21.49
2018-05-07T09:06:51.610Z,21.61
2018-05-07T09:07:51.620Z,21.74
2018-05-07T09:08:51.470Z,21.86
2018-05-07T09:09:51.429Z,21.91
2018-05-07T09:10:51.337Z,21.84
2018-05-07T09:11:51.343Z,21.89
2018-05-07T09:12:51.200Z,21.91
2018-05-07T09:13:51.160Z,21.95
2018-05-07T09:14:51.062Z,22.01
2018-05-07T09:15:51.069Z,22.08
2018-05-07T09:16:50.923Z,22.19
2018-05-07T09:17:50.970Z,22.28
2018-05-07T09:18:50.783Z,22.39
2018-05-07T09:19:50.780Z,22.42
2018-05-07T09:20:50.646Z,22.46
2018-05-07T09:21:50.688Z,22.54
2018-05-07T09:22:50.509Z,22.47
2018-05-07T09:23:50.499Z,22.53
2018-05-07T09:24:50.458Z,22.57
2018-05-07T09:25:50.410Z,22.65
2018-05-07T09:26:50.245Z,22.57
2018-05-07T09:27:50.217Z,22.56
2018-05-07T09:28:50.104Z,22.63
2018-05-07T09:29:50.130Z,22.57
2018-05-07T09:30:49.965Z,22.39
2018-05-07T09:31:49.942Z,22.26
2018-05-07T09:32:49.824Z,22.26
2018-05-07T09:33:49.874Z,22.20
2018-05-07T09:34:49.691Z,22.13
2018-05-07T09:35:49.657Z,22.12
2018-05-07T09:36:49.559Z,22.16
2018-05-07T09:37:49.574Z,22.20
2018-05-07T09:38:49.426Z,22.02
2018-05-07T09:39:49.382Z,22.16
2018-05-07T09:40:49.283Z,22.10
2018-05-07T09:41:49.287Z,22.28
2018-05-07T09:42:49.153Z,22.38
2018-05-07T09:43:49.096Z,22.57
2018-05-07T09:44:49.012Z,22.71
2018-05-07T09:45:49.007Z,22.86
2018-05-07T09:46:48.890Z,22.94
2018-05-07T09:47:48.929Z,23.17
2018-05-07T09:48:48.741Z,23.24
2018-05-07T09:49:48.728Z,23.08
2018-05-07T09:50:48.604Z,22.96
2018-05-07T09:51:48.646Z,23.00
2018-05-07T09:52:48.467Z,22.96
2018-05-07T09:53:48.448Z,23.17
2018-05-07T09:54:48.335Z,22.97
2018-05-07T09:55:48.359Z,23.11
2018-05-07T09:56:48.275Z,23.14
2018-05-07T09:57:48.163Z,23.05
2018-05-07T09:58:48.066Z,23.15
2018-05-07T09:59:48.076Z,23.22
2018-05-07T10:00:47.927Z,23.20
2018-05-07T10:01:47.891Z,23.17
2018-05-07T10:02:47.796Z,23.05
2018-05-07T10:03:47.795Z,22.96
2018-05-07T10:04:47.657Z,22.96
2018-05-07T10:05:47.707Z,22.92
2018-05-07T10:06:47.525Z,22.81
2018-05-07T10:07:47.514Z,22.89
2018-05-07T10:08:47.388Z,22.86
2018-05-07T10:09:47.424Z,22.99
2018-05-07T10:10:47.256Z,23.07
2018-05-07T10:11:47.232Z,23.15
2018-05-07T10:12:47.119Z,23.26
2018-05-07T10:13:47.145Z,23.20
2018-05-07T10:14:46.987Z,23.31
2018-05-07T10:15:46.960Z,23.43
2018-05-07T10:16:46.860Z,23.33
2018-05-07T10:17:46.863Z,23.38
2018-05-07T10:18:46.713Z,23.37
2018-05-07T10:19:46.670Z,23.46
2018-05-07T10:20:46.581Z,23.68
2018-05-07T10:21:46.588Z,23.71
2018-05-07T10:22:46.447Z,23.65
2018-05-07T10:23:46.494Z,23.72
2018-05-07T10:24:46.315Z,23.64
2018-05-07T10:25:46.305Z,23.78
2018-05-07T10:26:46.176Z,23.72
2018-05-07T10:27:46.215Z,23.82
2018-05-07T10:28:46.049Z,23.85
2018-05-07T10:29:46.038Z,23.93
2018-05-07T10:30:45.914Z,23.83
2018-05-07T10:31:45.936Z,23.75
2018-05-07T10:32:45.778Z,23.55
2018-05-07T10:33:45.744Z,23.55
2018-05-07T10:34:45.646Z,23.43
2018-05-07T10:35:45.656Z,23.48
2018-05-07T10:36:45.516Z,23.49
2018-05-07T10:37:45.463Z,23.63
2018-05-07T10:38:45.384Z,23.60
2018-05-07T10:39:45.375Z,23.63
2018-05-07T10:40:45.248Z,23.65
2018-05-07T10:41:45.285Z,23.74
2018-05-07T10:42:45.181Z,23.83
2018-05-07T10:43:45.096Z,23.92
2018-05-07T10:44:44.979Z,24.08
2018-05-07T10:45:45.014Z,24.23
2018-05-07T10:46:44.846Z,24.45
2018-05-07T10:47:44.814Z,24.45
2018-05-07T10:48:44.712Z,24.60
2018-05-07T10:49:44.726Z,24.64
2018-05-07T10:50:44.579Z,24.82
2018-05-07T10:51:44.533Z,24.85
2018-05-07T10:52:44.451Z,24.78
2018-05-07T10:53:44.444Z,24.86
2018-05-07T10:54:44.316Z,24.94
2018-05-07T10:55:44.354Z,25.05
2018-05-07T10:56:44.181Z,25.10
2018-05-07T10:57:44.165Z,25.17
2018-05-07T10:58:44.054Z,25.34
2018-05-07T10:59:44.076Z,25.25
2018-05-07T11:00:43.920Z,25.20
2018-05-07T11:01:43.962Z,25.09
2018-05-07T11:02:43.782Z,25.16
2018-05-07T11:03:43.794Z,25.16
2018-05-07T11:04:43.665Z,25.25
2018-05-07T11:05:43.710Z,25.32
2018-05-07T11:06:43.534Z,25.42
2018-05-07T11:07:43.517Z,25.42
2018-05-07T11:08:43.397Z,25.68
2018-05-07T11:09:44.351Z,25.53
2018-05-07T11:10:43.263Z,25.46
2018-05-07T11:11:49.285Z,25.34
2018-05-07T11:12:43.147Z,25.37
2018-05-07T11:13:43.153Z,25.30
2018-05-07T11:14:43.005Z,25.38
2018-05-07T11:15:42.959Z,25.41
2018-05-07T11:16:42.870Z,25.41
2018-05-07T11:17:42.866Z,25.64
2018-05-07T11:18:42.739Z,25.64
2018-05-07T11:19:42.828Z,25.65
2018-05-07T11:20:42.608Z,25.65
2018-05-07T11:21:42.588Z,25.53
2018-05-07T11:22:42.487Z,25.67
2018-05-07T11:23:42.496Z,25.70
2018-05-07T11:24:42.349Z,25.86
2018-05-07T11:25:42.309Z,25.86
2018-05-07T11:26:42.220Z,26.01
2018-05-07T11:27:42.217Z,25.84
2018-05-07T11:28:42.085Z,25.82
2018-05-07T11:29:42.129Z,25.89
2018-05-07T11:30:41.960Z,25.86
2018-05-07T11:31:41.938Z,25.97
2018-05-07T11:32:41.823Z,26.16
2018-05-07T11:33:41.845Z,26.21
2018-05-07T11:34:41.699Z,26.27
2018-05-07T11:35:41.654Z,26.34
2018-05-07T11:36:41.569Z,26.23
2018-05-07T11:37:46.279Z,26.34
2018-05-07T11:38:41.436Z,26.39
2018-05-07T11:39:41.480Z,26.40
2018-05-07T11:40:41.315Z,26.18
2018-05-07T11:41:41.285Z,25.97
2018-05-07T11:42:41.183Z,26.05
2018-05-07T11:43:41.198Z,26.05
2018-05-07T11:44:41.054Z,26.05
2018-05-07T11:45:41.004Z,25.97
2018-05-07T11:46:40.922Z,25.93
2018-05-07T11:47:40.963Z,25.84
2018-05-07T11:48:40.790Z,25.86
2018-05-07T11:49:40.741Z,25.78
2018-05-07T11:50:40.664Z,25.78
2018-05-07T11:51:40.622Z,25.93
2018-05-07T11:52:40.535Z,26.09
2018-05-07T11:53:40.478Z,26.31
2018-05-07T11:54:40.405Z,26.21
2018-05-07T11:55:40.458Z,26.24
2018-05-07T11:56:40.279Z,26.18
2018-05-07T11:57:40.267Z,26.11
2018-05-07T11:58:40.149Z,25.96
2018-05-07T11:59:40.176Z,25.93
2018-05-07T12:00:40.020Z,25.87
2018-05-07T12:01:39.984Z,26.01
2018-05-07T12:02:39.912Z,26.09
2018-05-07T12:03:39.898Z,26.18
2018-05-07T12:04:39.764Z,26.30
2018-05-07T12:05:39.807Z,26.23
2018-05-07T12:06:39.633Z,26.32
2018-05-07T12:07:39.615Z,26.46
2018-05-07T12:08:39.505Z,26.60
2018-05-07T12:09:39.527Z,26.71
2018-05-07T12:10:39.377Z,26.62
2018-05-07T12:11:40.358Z,26.43
2018-05-07T12:12:39.249Z,26.31
2018-05-07T12:13:39.246Z,26.11
2018-05-07T12:14:39.119Z,26.12
2018-05-07T12:15:39.209Z,26.18
2018-05-07T12:16:38.991Z,26.20
2018-05-07T12:17:38.966Z,26.11
2018-05-07T12:18:38.861Z,26.05
2018-05-07T12:19:38.880Z,25.94
2018-05-07T12:20:38.740Z,25.94
2018-05-07T12:21:38.787Z,25.93
2018-05-07T12:22:38.607Z,25.90
2018-05-07T12:23:38.605Z,25.86
2018-05-07T12:24:38.491Z,25.82
2018-05-07T12:25:38.425Z,25.83
2018-05-07T12:26:38.350Z,25.90
2018-05-07T12:27:38.317Z,25.96
2018-05-07T12:28:38.227Z,25.92
2018-05-07T12:29:38.230Z,26.04
2018-05-07T12:30:38.091Z,25.92
2018-05-07T12:31:38.177Z,25.99
2018-05-07T12:32:37.966Z,26.02
2018-05-07T12:33:37.950Z,26.16
2018-05-07T12:34:37.837Z,26.23
2018-05-07T12:35:37.858Z,26.02
2018-05-07T12:36:37.710Z,26.30
2018-05-07T12:37:37.714Z,26.30
2018-05-07T12:38:37.586Z,26.21
2018-05-07T12:39:37.579Z,26.32
2018-05-07T12:40:37.451Z,26.35
2018-05-07T12:41:37.491Z,26.16
2018-05-07T12:42:37.331Z,26.05
2018-05-07T12:43:37.299Z,26.04
2018-05-07T12:44:37.196Z,26.05
2018-05-07T12:45:37.212Z,26.16
2018-05-07T12:46:37.065Z,25.93
2018-05-07T12:47:37.117Z,25.82
2018-05-07T12:48:36.941Z,25.82
2018-05-07T12:49:36.927Z,25.89
2018-05-07T12:50:36.812Z,26.02
2018-05-07T12:51:36.838Z,26.21
2018-05-07T12:52:37.775Z,26.24
2018-05-07T12:53:36.647Z,26.09
2018-05-07T12:54:36.557Z,25.96
2018-05-07T12:55:36.556Z,26.01
2018-05-07T12:56:36.428Z,26.16
2018-05-07T12:57:36.470Z,26.30
2018-05-07T12:58:36.295Z,26.34
2018-05-07T12:59:36.279Z,26.45
2018-05-07T13:00:36.175Z,26.31
2018-05-07T13:01:36.188Z,26.27